sensor_id;sensor_type;location;lat;lon;timestamp;P1;durP1;ratioP1;P2;durP2;ratioP2
321;SDS011;148;51.480;7.208;2024-02-21T17:01:09;6.75;;;3.65;;
321;SDS011;148;51.480;7.208;2024-02-21T17:03:35;10.43;;;3.40;;
321;SDS011;148;51.480;7.208;2024-02-21T17:06:02;11.83;;;4.07;;
321;SDS011;148;51.480;7.208;2024-02-21T17:08:29;10.47;;;4.10;;
321;SDS011;148;51.480;7.208;2024-02-21T17:10:55;11.97;;;3.77;;
321;SDS011;148;51.480;7.208;2024-02-21T17:13:21;8.70;;;3.50;;
321;SDS011;148;51.480;7.208;2024-02-21T17:15:48;11.47;;;3.97;;
321;SDS011;148;51.480;7.208;2024-02-21T17:18:16;7.87;;;3.33;;
321;SDS011;148;51.480;7.208;2024-02-21T17:20:43;4.67;;;3.03;;
321;SDS011;148;51.480;7.208;2024-02-21T17:30:28;8.37;;;3.87;;
321;SDS011;148;51.480;7.208;2024-02-21T17:32:53;15.13;;;4.60;;
321;SDS011;148;51.480;7.208;2024-02-21T17:35:20;9.20;;;4.10;;
321;SDS011;148;51.480;7.208;2024-02-21T17:37:47;15.60;;;4.70;;
321;SDS011;148;51.480;7.208;2024-02-21T17:40:13;13.97;;;5.00;;
321;SDS011;148;51.480;7.208;2024-02-21T17:42:39;11.70;;;3.93;;
321;SDS011;148;51.480;7.208;2024-02-21T17:52:23;14.20;;;4.00;;
321;SDS011;148;51.480;7.208;2024-02-21T17:54:48;11.13;;;4.20;;
321;SDS011;148;51.480;7.208;2024-02-21T17:57:14;9.23;;;4.77;;
321;SDS011;148;51.480;7.208;2024-02-21T17:59:42;8.73;;;4.10;;
321;SDS011;148;51.480;7.208;2024-02-21T18:02:09;16.23;;;4.20;;
321;SDS011;148;51.480;7.208;2024-02-21T18:04:35;9.90;;;4.20;;
321;SDS011;148;51.480;7.208;2024-02-21T18:07:01;14.17;;;4.63;;
321;SDS011;148;51.480;7.208;2024-02-21T18:09:30;11.97;;;3.90;;
321;SDS011;148;51.480;7.208;2024-02-21T18:11:56;10.77;;;3.67;;
321;SDS011;148;51.480;7.208;2024-02-21T18:14:23;6.30;;;3.87;;
321;SDS011;148;51.480;7.208;2024-02-21T18:16:48;8.60;;;4.50;;
321;SDS011;148;51.480;7.208;2024-02-21T18:19:14;9.80;;;3.80;;
321;SDS011;148;51.480;7.208;2024-02-21T18:21:39;13.50;;;4.83;;
321;SDS011;148;51.480;7.208;2024-02-21T18:24:05;8.50;;;5.10;;
321;SDS011;148;51.480;7.208;2024-02-21T18:26:31;10.30;;;3.90;;
321;SDS011;148;51.480;7.208;2024-02-21T18:28:58;13.00;;;3.90;;
321;SDS011;148;51.480;7.208;2024-02-21T18:31:24;8.40;;;3.77;;
321;SDS011;148;51.480;7.208;2024-02-21T18:33:52;9.20;;;3.97;;
321;SDS011;148;51.480;7.208;2024-02-21T18:46:02;10.77;;;4.77;;
321;SDS011;148;51.480;7.208;2024-02-21T18:50:53;18.10;;;4.60;;
321;SDS011;148;51.480;7.208;2024-02-21T19:05:30;8.00;;;3.30;;
321;SDS011;148;51.480;7.208;2024-02-21T19:07:56;10.03;;;5.20;;
321;SDS011;148;51.480;7.208;2024-02-21T19:10:21;11.40;;;4.73;;
321;SDS011;148;51.480;7.208;2024-02-21T19:12:47;12.23;;;5.53;;
321;SDS011;148;51.480;7.208;2024-02-21T19:15:13;7.40;;;4.87;;
321;SDS011;148;51.480;7.208;2024-02-21T19:17:38;9.73;;;4.43;;
321;SDS011;148;51.480;7.208;2024-02-21T19:20:05;11.17;;;5.43;;
321;SDS011;148;51.480;7.208;2024-02-21T19:22:34;7.63;;;3.93;;
321;SDS011;148;51.480;7.208;2024-02-21T19:25:00;6.57;;;4.27;;
321;SDS011;148;51.480;7.208;2024-02-21T19:27:30;10.70;;;4.87;;
321;SDS011;148;51.480;7.208;2024-02-21T19:29:56;9.00;;;4.40;;
321;SDS011;148;51.480;7.208;2024-02-21T19:32:21;7.43;;;4.17;;
321;SDS011;148;51.480;7.208;2024-02-21T19:34:47;9.97;;;4.60;;
321;SDS011;148;51.480;7.208;2024-02-21T19:37:13;9.03;;;5.60;;
321;SDS011;148;51.480;7.208;2024-02-21T19:39:38;8.33;;;4.20;;
321;SDS011;148;51.480;7.208;2024-02-21T19:42:06;11.67;;;5.20;;
321;SDS011;148;51.480;7.208;2024-02-21T19:44:32;8.57;;;4.30;;
321;SDS011;148;51.480;7.208;2024-02-21T19:46:58;7.93;;;4.47;;
321;SDS011;148;51.480;7.208;2024-02-21T19:49:24;13.07;;;5.30;;
321;SDS011;148;51.480;7.208;2024-02-21T19:51:50;8.53;;;4.20;;
321;SDS011;148;51.480;7.208;2024-02-21T19:54:15;8.00;;;4.27;;
321;SDS011;148;51.480;7.208;2024-02-21T19:56:43;9.93;;;4.13;;
321;SDS011;148;51.480;7.208;2024-02-21T19:59:09;8.20;;;4.80;;
321;SDS011;148;51.480;7.208;2024-02-21T20:01:37;11.43;;;5.73;;
321;SDS011;148;51.480;7.208;2024-02-21T20:04:04;14.90;;;5.33;;
321;SDS011;148;51.480;7.208;2024-02-21T20:06:30;14.20;;;5.13;;
321;SDS011;148;51.480;7.208;2024-02-21T20:08:56;12.63;;;4.67;;
321;SDS011;148;51.480;7.208;2024-02-21T20:11:23;9.00;;;4.77;;
321;SDS011;148;51.480;7.208;2024-02-21T20:13:54;13.57;;;4.90;;
321;SDS011;148;51.480;7.208;2024-02-21T20:16:20;7.63;;;4.60;;
321;SDS011;148;51.480;7.208;2024-02-21T20:18:47;7.60;;;4.07;;
321;SDS011;148;51.480;7.208;2024-02-21T20:21:14;10.77;;;6.13;;
321;SDS011;148;51.480;7.208;2024-02-21T20:26:05;9.33;;;4.57;;
321;SDS011;148;51.480;7.208;2024-02-21T20:28:33;11.50;;;5.97;;
321;SDS011;148;51.480;7.208;2024-02-21T20:30:59;11.60;;;4.80;;
321;SDS011;148;51.480;7.208;2024-02-21T20:33:25;10.83;;;4.67;;
321;SDS011;148;51.480;7.208;2024-02-21T20:35:53;9.13;;;4.13;;
321;SDS011;148;51.480;7.208;2024-02-21T20:43:15;12.80;;;5.50;;
321;SDS011;148;51.480;7.208;2024-02-21T20:48:07;10.20;;;4.40;;
321;SDS011;148;51.480;7.208;2024-02-21T20:50:34;6.73;;;4.60;;
321;SDS011;148;51.480;7.208;2024-02-21T20:57:53;10.20;;;4.80;;
321;SDS011;148;51.480;7.208;2024-02-21T21:00:18;10.17;;;5.10;;
321;SDS011;148;51.480;7.208;2024-02-21T21:02:47;17.40;;;5.40;;
321;SDS011;148;51.480;7.208;2024-02-21T21:07:41;11.00;;;5.70;;
321;SDS011;148;51.480;7.208;2024-02-21T21:29:43;10.83;;;5.20;;
321;SDS011;148;51.480;7.208;2024-02-21T21:39:26;8.67;;;5.23;;
321;SDS011;148;51.480;7.208;2024-02-21T21:49:10;11.90;;;5.40;;
321;SDS011;148;51.480;7.208;2024-02-21T21:58:59;8.70;;;5.43;;
321;SDS011;148;51.480;7.208;2024-02-21T22:06:19;6.13;;;4.03;;
321;SDS011;148;51.480;7.208;2024-02-21T22:08:45;8.93;;;4.40;;
321;SDS011;148;51.480;7.208;2024-02-21T22:11:13;9.40;;;4.60;;
321;SDS011;148;51.480;7.208;2024-02-21T22:16:06;7.75;;;4.15;;
321;SDS011;148;51.480;7.208;2024-02-21T22:21:01;6.70;;;4.60;;
321;SDS011;148;51.480;7.208;2024-02-21T22:25:53;7.80;;;3.80;;
321;SDS011;148;51.480;7.208;2024-02-21T22:28:19;5.30;;;3.93;;
321;SDS011;148;51.480;7.208;2024-02-21T22:30:44;4.50;;;3.70;;
321;SDS011;148;51.480;7.208;2024-02-21T22:33:10;8.70;;;4.30;;
321;SDS011;148;51.480;7.208;2024-02-21T22:35:36;6.90;;;4.00;;
321;SDS011;148;51.480;7.208;2024-02-21T22:38:02;5.93;;;3.43;;
321;SDS011;148;51.480;7.208;2024-02-21T22:40:28;5.33;;;3.67;;
321;SDS011;148;51.480;7.208;2024-02-21T22:42:54;5.60;;;3.40;;
321;SDS011;148;51.480;7.208;2024-02-21T22:45:20;5.20;;;3.80;;
321;SDS011;148;51.480;7.208;2024-02-21T22:47:47;7.30;;;3.80;;
321;SDS011;148;51.480;7.208;2024-02-21T22:50:13;5.23;;;3.67;;
321;SDS011;148;51.480;7.208;2024-02-21T22:52:38;4.20;;;3.97;;
321;SDS011;148;51.480;7.208;2024-02-21T22:55:04;5.70;;;3.40;;
321;SDS011;148;51.480;7.208;2024-02-21T22:57:31;6.83;;;3.83;;
321;SDS011;148;51.480;7.208;2024-02-21T22:59:56;4.73;;;3.70;;
321;SDS011;148;51.480;7.208;2024-02-21T23:02:22;4.93;;;3.03;;
321;SDS011;148;51.480;7.208;2024-02-21T23:04:48;4.90;;;3.30;;
321;SDS011;148;51.480;7.208;2024-02-21T23:07:13;6.67;;;3.57;;
321;SDS011;148;51.480;7.208;2024-02-21T23:09:39;4.90;;;3.07;;
321;SDS011;148;51.480;7.208;2024-02-21T23:12:05;4.40;;;3.20;;
321;SDS011;148;51.480;7.208;2024-02-21T23:14:33;4.80;;;2.83;;
321;SDS011;148;51.480;7.208;2024-02-21T23:16:59;5.27;;;3.07;;
321;SDS011;148;51.480;7.208;2024-02-21T23:19:25;3.37;;;2.80;;
321;SDS011;148;51.480;7.208;2024-02-21T23:21:50;3.57;;;2.23;;
321;SDS011;148;51.480;7.208;2024-02-21T23:24:16;6.17;;;2.87;;
321;SDS011;148;51.480;7.208;2024-02-21T23:26:42;3.67;;;2.63;;
321;SDS011;148;51.480;7.208;2024-02-21T23:29:08;3.97;;;2.77;;
321;SDS011;148;51.480;7.208;2024-02-21T23:31:33;3.50;;;2.50;;
321;SDS011;148;51.480;7.208;2024-02-21T23:33:59;3.40;;;2.50;;
321;SDS011;148;51.480;7.208;2024-02-21T23:36:24;4.73;;;2.70;;
321;SDS011;148;51.480;7.208;2024-02-21T23:38:50;3.27;;;2.60;;
321;SDS011;148;51.480;7.208;2024-02-21T23:41:16;3.50;;;2.53;;
321;SDS011;148;51.480;7.208;2024-02-21T23:43:42;2.43;;;2.03;;
321;SDS011;148;51.480;7.208;2024-02-21T23:46:08;3.13;;;2.33;;
321;SDS011;148;51.480;7.208;2024-02-21T23:48:36;3.03;;;2.60;;
321;SDS011;148;51.480;7.208;2024-02-21T23:51:02;2.90;;;2.37;;
